Aérodrome :
LOGIN :

S'inscrire | Disclaimer

   EN    FR    IT 

 










Légende :    VFR   VFR Marginal   IFR   IFR Intensif   IFR Très Intensif
Visi : 
Plafond : 
>= 8 km
>= 3000ft
5 à 8 km
1000 à 3000 ft
1500m à 5 km
500 à 1000 ft
800 à 1500m
200 à 500 ft
< 800m
< 200 ft
Symboles :   Orages  Brouillard  Fortes neiges  Fortes précipitations  Vent > 20 kt
SIGMETs :   Divers  Orages  Givrage  Turbulence  Onde Orograph.  Cendres Volcan.







- Altitude de l'aérodrome : 162 ft
- Code IATA : BOD
- Voir les cartes d'approche


LFBD - Bordeaux / Merignac

DERNIER METAR :
  • 281200Z AUTO 26015KT 9999 SCT022 BKN028 BKN130 21/14 Q1003 TEMPO 25015G30KT 1500 TSRA BKN006 OVC020CB

METARs EXPIRÉS :
  • 281130Z AUTO 25013KT 9999 SCT027 BKN043 BKN056 21/15 Q1003 TEMPO 25015G30KT 1500 TSRA BKN006 OVC020CB
  • 281100Z AUTO 27013KT 9999 SCT031/// BKN047/// BKN064/// ///CB 21/15 Q1003 TEMPO 25015G25KT 1500 TSRA BKN010 OVC020CB
  • 281030Z AUTO 24014KT 9999 VCTS SCT031/// BKN042/// BKN050/// ///CB 22/16 Q1003 TEMPO 25015G25KT 1500 TSRA BKN010 OVC020CB
  • 281000Z AUTO 24015KT 9999 SCT030/// BKN039/// BKN045/// ///CB 22/15 Q1003 TEMPO 25015G25KT 1500 TSRA BKN010 OVC020CB
  • 280930Z AUTO 25012KT 210V290 9999 FEW025 SCT030 BKN040 22/15 Q1003 TEMPO 25015G25KT 1500 TSRA BKN010 OVC020CB

TAF TAF LFBD
Valide du 28 à 12h jusqu'au 29 à 18h UTC


281100Z 2812/2918 25010KT 9999 BKN030
TEMPO 2812/2918 4500 SHRA BKN015TCU
PROB40
TEMPO 2812/2824 25015G30KT 1500 TSRA BKN006 OVC020CB
PROB30
TEMPO 2903/2912 25015G25KT 1500 TSRA BKN010 OVC020CB
PROB40
TEMPO 2912/2918 25015G30KT 1500 TSRA BKN010 OVC020CB TX22/2815Z TN14/2904Z
ATIS : +33 5 57 92 81 04
Pas de NOTAMs connus pour ce terrain.
2 SIGMETs publiés pour la FIR Bordeaux (LFBB) :
 
Orages noyés dans la masse
LFBB SIGMET 4 VALID 281200/281600 LFPW
LFBB BORDEAUX FIR/UIR EMBD TS FCST S OF LINE N4245 E00230 - N4345 W00145 TOP FL310 STNR NC=
Orages noyés dans la masse
LFBB SIGMET 3 VALID 281200/281400 LFPW
LFBB BORDEAUX FIR/UIR EMBD TS OBS AT 1200Z WI N4345 W00145 - N4630 W00130 - N4630 W00015 - N4715 W00015 - N4645 E00115 - N4345 E00030 TOP FL310 MOV E 20KT NC=



MET'MAP, la Météo Aéronautique d'un coup d'oeil ! - Copyright ORBIFLY Décembre 2007 - Disclaimer

ORBIFLY MET'MAP TEAM :

Programmation & Développement : Alexandra Zaïnal
Conception & Développement : Baudouin d'Aumeries
Co-Programmation & Développement : Marc-Olivier Méhu
Soutien technique & logistique : Manuel Goepfert

Contact : metmap@orbifly.com




SOURCES & CREDITS :

   NOAA